createdAt,value
2023-02-11T00:01:26.995Z,3.54
2023-02-11T00:03:55.213Z,3.36
2023-02-11T00:06:23.263Z,3.48
2023-02-11T00:08:50.921Z,3.56
2023-02-11T00:11:19.576Z,3.69
2023-02-11T00:13:47.957Z,3.55
2023-02-11T00:16:18.104Z,3.54
2023-02-11T00:18:46.372Z,3.60
2023-02-11T00:21:17.150Z,3.55
2023-02-11T00:23:46.097Z,3.66
2023-02-11T00:26:22.015Z,3.71
2023-02-11T00:28:51.842Z,3.99
2023-02-11T00:31:21.406Z,3.82
2023-02-11T00:33:49.180Z,3.45
2023-02-11T00:36:24.602Z,3.48
2023-02-11T00:38:53.670Z,3.53
2023-02-11T00:41:22.105Z,3.46
2023-02-11T00:43:49.932Z,3.58
2023-02-11T00:46:19.314Z,3.52
2023-02-11T00:48:46.829Z,3.74
2023-02-11T00:51:14.024Z,3.52
2023-02-11T00:53:41.557Z,3.66
2023-02-11T00:56:08.881Z,3.49
2023-02-11T00:58:36.520Z,3.44
2023-02-11T01:01:04.254Z,3.49
2023-02-11T01:03:31.740Z,3.40
2023-02-11T01:05:59.046Z,3.52
2023-02-11T01:08:26.761Z,3.56
2023-02-11T01:10:56.208Z,3.54
2023-02-11T01:13:24.102Z,3.60
2023-02-11T01:15:51.647Z,3.66
2023-02-11T01:18:19.919Z,3.52
2023-02-11T01:20:50.758Z,3.54
2023-02-11T01:23:18.518Z,3.61
2023-02-11T01:25:46.516Z,3.55
2023-02-11T01:28:23.008Z,3.60
2023-02-11T01:30:50.815Z,3.68
2023-02-11T01:33:18.358Z,3.41
2023-02-11T01:35:46.505Z,3.64
2023-02-11T01:38:24.620Z,3.74
2023-02-11T01:41:02.925Z,3.44
2023-02-11T01:43:38.267Z,3.42
2023-02-11T01:46:28.489Z,3.71
2023-02-11T01:49:01.631Z,3.53
2023-02-11T01:51:38.295Z,3.57
2023-02-11T01:54:27.980Z,3.43
2023-02-11T01:57:16.852Z,3.55
2023-02-11T01:59:47.838Z,3.56
2023-02-11T02:02:23.062Z,3.39
2023-02-11T02:05:00.599Z,3.41
2023-02-11T02:07:42.748Z,3.26
2023-02-11T02:10:17.356Z,3.38
2023-02-11T02:12:44.483Z,3.23
2023-02-11T02:15:18.775Z,3.29
2023-02-11T02:18:02.731Z,3.35
2023-02-11T02:20:45.438Z,3.18
2023-02-11T02:23:15.242Z,3.30
2023-02-11T02:26:16.669Z,3.19
2023-02-11T02:29:02.222Z,3.19
2023-02-11T02:31:51.126Z,3.30
2023-02-11T02:34:36.569Z,3.16
2023-02-11T02:37:19.916Z,3.24
2023-02-11T02:39:50.255Z,3.24
2023-02-11T02:42:20.202Z,3.09
2023-02-11T02:44:51.362Z,3.29
2023-02-11T02:47:19.344Z,3.19
2023-02-11T02:49:46.419Z,3.19
2023-02-11T02:52:30.748Z,3.13
2023-02-11T02:55:22.703Z,3.22
2023-02-11T02:58:08.637Z,3.28
2023-02-11T03:01:17.804Z,3.50
2023-02-11T03:04:12.198Z,3.11
2023-02-11T03:06:55.750Z,3.10
2023-02-11T03:09:39.084Z,3.07
2023-02-11T03:12:07.751Z,3.31
2023-02-11T03:14:35.960Z,3.13
2023-02-11T03:17:05.977Z,3.15
2023-02-11T03:19:46.168Z,3.01
2023-02-11T03:22:39.201Z,3.22
2023-02-11T03:25:07.586Z,3.24
2023-02-11T03:27:47.789Z,3.46
2023-02-11T03:30:53.457Z,3.51
2023-02-11T03:33:32.188Z,2.99
2023-02-11T03:36:17.658Z,3.15
2023-02-11T03:38:51.867Z,3.14
2023-02-11T03:41:23.502Z,3.22
2023-02-11T03:43:54.428Z,2.99
2023-02-11T03:46:28.965Z,3.10
2023-02-11T03:49:03.038Z,3.14
2023-02-11T03:51:33.305Z,3.20
2023-02-11T03:54:02.594Z,3.00
2023-02-11T03:56:35.459Z,3.05
2023-02-11T03:59:02.891Z,3.00
2023-02-11T04:01:30.314Z,3.02
2023-02-11T04:03:57.367Z,3.07
2023-02-11T04:06:24.767Z,2.96
2023-02-11T04:08:51.828Z,2.95
2023-02-11T04:11:19.286Z,3.06
2023-02-11T04:13:46.385Z,3.01
2023-02-11T04:16:13.694Z,2.89
2023-02-11T04:18:40.811Z,2.91
2023-02-11T04:21:08.259Z,2.95
2023-02-11T04:23:35.674Z,3.03
2023-02-11T04:26:03.653Z,2.98
2023-02-11T04:28:31.483Z,3.17
2023-02-11T04:30:59.098Z,3.08
2023-02-11T04:33:26.228Z,2.91
2023-02-11T04:35:53.671Z,2.94
2023-02-11T04:38:20.726Z,2.95
2023-02-11T04:40:48.382Z,2.97
2023-02-11T04:43:15.668Z,3.03
2023-02-11T04:45:43.232Z,2.89
2023-02-11T04:48:10.349Z,3.14
2023-02-11T04:50:37.862Z,3.15
2023-02-11T04:53:05.013Z,3.10
2023-02-11T04:55:32.378Z,3.27
2023-02-11T04:57:59.470Z,3.03
2023-02-11T05:00:26.950Z,2.96
2023-02-11T05:02:54.007Z,3.06
2023-02-11T05:05:21.644Z,2.95
2023-02-11T05:07:48.835Z,3.20
2023-02-11T05:10:16.324Z,2.85
2023-02-11T05:12:43.380Z,2.97
2023-02-11T05:15:10.850Z,3.17
2023-02-11T05:17:38.003Z,3.17
2023-02-11T05:20:05.992Z,3.02
2023-02-11T05:22:33.022Z,3.30
2023-02-11T05:25:00.462Z,3.19
2023-02-11T05:27:27.584Z,3.39
2023-02-11T05:29:54.945Z,3.40
2023-02-11T05:32:22.030Z,2.91
2023-02-11T05:34:49.508Z,3.19
2023-02-11T05:37:16.634Z,3.17
2023-02-11T05:39:44.114Z,3.12
2023-02-11T05:42:11.346Z,3.12
2023-02-11T05:44:39.273Z,3.27
2023-02-11T05:47:09.208Z,3.65
2023-02-11T05:49:36.983Z,3.41
2023-02-11T05:52:04.784Z,3.37
2023-02-11T05:54:32.885Z,3.28
2023-02-11T05:57:00.720Z,3.42
2023-02-11T05:59:28.160Z,3.38
2023-02-11T06:01:57.385Z,3.30
2023-02-11T06:04:24.767Z,3.40
2023-02-11T06:06:51.981Z,3.58
2023-02-11T06:09:19.592Z,3.62
2023-02-11T06:11:46.790Z,3.47
2023-02-11T06:14:14.820Z,3.50
2023-02-11T06:16:41.976Z,3.64
2023-02-11T06:19:09.558Z,3.66
2023-02-11T06:21:43.879Z,3.82
2023-02-11T06:24:12.640Z,4.21
2023-02-11T06:26:39.760Z,3.92
2023-02-11T06:29:07.446Z,3.79
2023-02-11T06:31:34.865Z,3.87
2023-02-11T06:34:03.561Z,3.95
2023-02-11T06:36:30.969Z,3.87
2023-02-11T06:38:58.459Z,4.16
2023-02-11T06:41:25.492Z,4.09
2023-02-11T06:43:53.493Z,4.08
2023-02-11T06:46:20.734Z,4.11
2023-02-11T06:48:48.224Z,4.11
2023-02-11T06:51:16.040Z,4.15
2023-02-11T06:53:46.223Z,4.10
2023-02-11T06:56:16.509Z,4.09
2023-02-11T06:58:44.704Z,4.16
2023-02-11T07:01:14.414Z,4.44
2023-02-11T07:03:44.576Z,4.15
2023-02-11T07:06:13.482Z,4.06
2023-02-11T07:08:42.548Z,4.15
2023-02-11T07:11:24.329Z,4.40
2023-02-11T07:13:53.684Z,4.22
2023-02-11T07:16:21.757Z,4.25
2023-02-11T07:18:49.826Z,4.34
2023-02-11T07:21:19.980Z,4.36
2023-02-11T07:23:48.501Z,4.43
2023-02-11T07:26:23.148Z,4.38
2023-02-11T07:28:51.404Z,4.39
2023-02-11T07:31:26.759Z,4.60
2023-02-11T07:33:57.310Z,4.40
2023-02-11T07:36:24.884Z,4.39
2023-02-11T07:38:54.032Z,4.63
2023-02-11T07:41:22.984Z,4.81
2023-02-11T07:43:51.043Z,4.60
2023-02-11T07:46:27.894Z,4.66
2023-02-11T07:48:55.875Z,4.79
2023-02-11T07:51:26.789Z,4.71
2023-02-11T07:53:55.750Z,4.64
2023-02-11T07:56:23.732Z,4.80
2023-02-11T07:58:52.555Z,4.82
2023-02-11T08:01:25.236Z,4.70
2023-02-11T08:03:53.316Z,4.90
2023-02-11T08:06:22.954Z,4.87
2023-02-11T08:08:50.585Z,4.94
2023-02-11T08:11:24.395Z,4.87
2023-02-11T08:13:53.351Z,4.96
2023-02-11T08:16:24.595Z,4.88
2023-02-11T08:18:54.112Z,5.08
2023-02-11T08:21:21.478Z,5.09
2023-02-11T08:23:49.877Z,4.85
2023-02-11T08:26:19.813Z,5.00
2023-02-11T08:28:49.100Z,4.95
2023-02-11T08:31:25.742Z,5.15
2023-02-11T08:33:54.866Z,5.43
2023-02-11T08:36:24.873Z,5.14
2023-02-11T08:39:05.649Z,5.05
2023-02-11T08:41:39.482Z,5.06
2023-02-11T08:44:07.257Z,5.00
2023-02-11T08:46:34.609Z,5.05
2023-02-11T08:49:02.294Z,5.09
2023-02-11T08:51:31.679Z,5.11
2023-02-11T08:54:00.532Z,5.20
2023-02-11T08:56:28.595Z,5.34
2023-02-11T08:58:56.325Z,5.34
2023-02-11T09:01:26.917Z,5.21
2023-02-11T09:03:55.172Z,5.27
2023-02-11T09:06:23.597Z,5.29
2023-02-11T09:08:53.521Z,5.17
2023-02-11T09:11:26.029Z,5.46
2023-02-11T09:13:54.599Z,5.29
2023-02-11T09:16:28.268Z,5.33
2023-02-11T09:19:01.189Z,5.65
2023-02-11T09:21:29.567Z,5.88
2023-02-11T09:23:57.440Z,5.86
2023-02-11T09:26:41.209Z,5.75
2023-02-11T09:29:18.995Z,5.89
2023-02-11T09:31:48.814Z,5.99
2023-02-11T09:34:17.423Z,5.82
2023-02-11T09:36:44.646Z,6.03
2023-02-11T09:39:17.082Z,6.22
2023-02-11T09:42:26.368Z,6.15
2023-02-11T09:45:01.195Z,6.41
2023-02-11T09:47:34.737Z,6.19
2023-02-11T09:50:15.236Z,6.39
2023-02-11T09:52:57.138Z,6.41
2023-02-11T09:55:30.568Z,6.68
2023-02-11T09:57:58.549Z,6.31
2023-02-11T10:00:38.212Z,6.52
2023-02-11T10:03:05.355Z,6.68
2023-02-11T10:05:53.659Z,6.73
2023-02-11T10:08:44.122Z,6.64
2023-02-11T10:11:31.017Z,6.73
2023-02-11T10:14:45.743Z,7.59
2023-02-11T10:17:38.297Z,7.01
2023-02-11T10:20:17.018Z,6.98
2023-02-11T10:22:53.381Z,7.44
2023-02-11T10:25:38.603Z,7.24
2023-02-11T10:28:22.229Z,7.43
2023-02-11T10:31:06.452Z,7.62
2023-02-11T10:33:37.252Z,7.39
2023-02-11T10:36:05.284Z,7.48
2023-02-11T10:38:34.067Z,7.43
2023-02-11T10:41:01.650Z,7.49
2023-02-11T10:43:32.225Z,7.28
2023-02-11T10:46:03.118Z,7.40
2023-02-11T10:48:46.903Z,7.21
2023-02-11T10:51:21.502Z,7.18
2023-02-11T10:54:08.711Z,7.32
2023-02-11T10:57:00.407Z,7.02
2023-02-11T10:59:39.198Z,7.04
2023-02-11T11:02:32.936Z,7.03
2023-02-11T11:05:17.540Z,6.93
2023-02-11T11:08:21.636Z,7.00
2023-02-11T11:11:47.144Z,6.97
2023-02-11T11:14:49.973Z,7.11
2023-02-11T11:18:46.161Z,7.21
2023-02-11T11:22:36.060Z,7.06
2023-02-11T11:26:02.266Z,7.22
2023-02-11T11:30:14.499Z,7.44
2023-02-11T11:37:33.232Z,7.19
2023-02-11T11:41:54.648Z,7.19
2023-02-11T11:45:37.683Z,6.98
2023-02-11T11:48:41.310Z,7.18
2023-02-11T11:55:35.290Z,7.23
2023-02-11T11:59:06.453Z,7.31
2023-02-11T12:03:31.151Z,7.13
2023-02-11T12:07:43.263Z,7.15
2023-02-11T12:11:49.274Z,7.05
2023-02-11T12:15:53.930Z,7.01
2023-02-11T12:19:49.822Z,6.98
2023-02-11T12:24:05.882Z,7.38
2023-02-11T12:35:50.747Z,7.38
2023-02-11T12:43:24.978Z,7.42
2023-02-11T12:47:03.834Z,7.66
2023-02-11T12:51:07.259Z,7.59
2023-02-11T12:55:09.321Z,7.60
2023-02-11T12:58:44.505Z,7.60
2023-02-11T13:01:53.803Z,7.84
2023-02-11T13:08:34.099Z,7.65
2023-02-11T13:11:44.566Z,7.67
2023-02-11T13:14:46.324Z,7.59
2023-02-11T13:18:16.782Z,7.63
2023-02-11T13:21:56.301Z,7.53
2023-02-11T13:25:07.674Z,7.57
2023-02-11T13:28:41.424Z,7.63
2023-02-11T13:31:39.608Z,7.83
2023-02-11T13:34:56.239Z,7.88
2023-02-11T13:38:12.351Z,7.77
2023-02-11T13:41:29.144Z,7.97
2023-02-11T13:44:48.744Z,7.64
2023-02-11T13:48:08.735Z,7.95
2023-02-11T13:51:58.853Z,7.65
2023-02-11T13:55:36.601Z,7.82
2023-02-11T13:58:30.955Z,7.86
2023-02-11T14:02:20.475Z,7.80
2023-02-11T14:05:47.270Z,7.61
2023-02-11T14:09:19.289Z,7.65
2023-02-11T14:12:20.082Z,7.76
2023-02-11T14:15:22.196Z,7.66
2023-02-11T14:17:54.732Z,7.69
2023-02-11T14:20:46.119Z,7.95
2023-02-11T14:23:29.346Z,7.64
2023-02-11T14:26:16.059Z,7.79
2023-02-11T14:28:56.199Z,7.76
2023-02-11T14:32:05.919Z,7.96
2023-02-11T14:35:16.196Z,7.99
2023-02-11T14:38:05.940Z,7.52
2023-02-11T14:40:41.117Z,7.85
2023-02-11T14:43:28.422Z,7.75
2023-02-11T14:46:00.318Z,7.70
2023-02-11T14:48:31.821Z,7.72
2023-02-11T14:51:00.847Z,7.60
2023-02-11T14:53:31.893Z,7.70
2023-02-11T14:55:59.523Z,7.94
2023-02-11T14:58:32.157Z,7.83
2023-02-11T15:01:07.774Z,7.91
2023-02-11T15:03:43.603Z,7.72
2023-02-11T15:06:21.907Z,7.62
2023-02-11T15:08:55.103Z,7.54
2023-02-11T15:11:26.727Z,7.85
2023-02-11T15:13:59.183Z,7.83
2023-02-11T15:16:29.334Z,7.61
2023-02-11T15:19:02.828Z,7.91
2023-02-11T15:21:34.671Z,7.63
2023-02-11T15:24:39.626Z,7.72
2023-02-11T15:27:14.585Z,7.97
2023-02-11T15:29:50.547Z,7.97
2023-02-11T15:32:36.813Z,7.86
2023-02-11T15:35:11.922Z,7.56
2023-02-11T15:37:40.493Z,7.93
2023-02-11T15:40:19.166Z,7.68
2023-02-11T15:43:13.923Z,7.75
2023-02-11T15:45:56.519Z,7.59
2023-02-11T15:48:37.193Z,7.63
2023-02-11T15:51:23.502Z,7.61
2023-02-11T15:54:02.947Z,7.60
2023-02-11T15:56:45.709Z,7.48
2023-02-11T15:59:26.099Z,7.59
2023-02-11T16:01:55.075Z,7.51
2023-02-11T16:04:26.601Z,7.53
2023-02-11T16:06:55.850Z,7.53
2023-02-11T16:09:36.052Z,7.55
2023-02-11T16:12:25.047Z,7.41
2023-02-11T16:14:52.506Z,7.40
2023-02-11T16:17:27.905Z,7.49
2023-02-11T16:19:55.396Z,7.30
2023-02-11T16:22:26.595Z,7.37
2023-02-11T16:24:57.672Z,7.14
2023-02-11T16:27:44.197Z,7.29
2023-02-11T16:30:27.080Z,7.16
2023-02-11T16:32:54.960Z,7.21
2023-02-11T16:35:22.401Z,6.91
2023-02-11T16:37:50.119Z,7.14
2023-02-11T16:40:17.853Z,6.89
2023-02-11T16:42:45.487Z,6.82
2023-02-11T16:45:13.799Z,6.77
2023-02-11T16:47:42.844Z,6.76
2023-02-11T16:50:19.483Z,6.79
2023-02-11T16:52:48.760Z,6.96
2023-02-11T16:55:17.513Z,6.56
2023-02-11T16:57:46.468Z,6.56
2023-02-11T17:00:17.820Z,6.57
2023-02-11T17:02:46.125Z,6.33
2023-02-11T17:05:23.176Z,6.42
2023-02-11T17:07:51.463Z,6.42
2023-02-11T17:10:21.805Z,6.50
2023-02-11T17:12:51.352Z,6.69
2023-02-11T17:15:19.378Z,6.59
2023-02-11T17:17:48.537Z,6.59
2023-02-11T17:20:16.641Z,6.34
2023-02-11T17:22:44.998Z,6.14
2023-02-11T17:25:12.973Z,6.00
2023-02-11T17:27:42.245Z,5.90
2023-02-11T17:30:13.611Z,5.68
2023-02-11T17:32:41.479Z,5.73
2023-02-11T17:35:09.266Z,5.76
2023-02-11T17:37:37.851Z,5.45
2023-02-11T17:40:06.493Z,5.42
2023-02-11T17:42:34.704Z,5.49
2023-02-11T17:45:02.120Z,5.23
2023-02-11T17:47:31.296Z,5.33
2023-02-11T17:49:59.102Z,5.15
2023-02-11T17:52:28.129Z,4.93
2023-02-11T17:54:56.156Z,5.02
2023-02-11T17:57:23.880Z,4.77
2023-02-11T17:59:51.868Z,4.70
2023-02-11T18:02:19.698Z,4.64
2023-02-11T18:04:47.070Z,4.68
2023-02-11T18:07:14.955Z,4.43
2023-02-11T18:09:44.097Z,4.71
2023-02-11T18:12:11.922Z,4.51
2023-02-11T18:14:40.522Z,4.34
2023-02-11T18:17:08.293Z,4.16
2023-02-11T18:19:36.661Z,4.32
2023-02-11T18:22:04.708Z,4.18
2023-02-11T18:24:32.870Z,4.06
2023-02-11T18:27:01.430Z,3.84
2023-02-11T18:29:29.135Z,4.06
2023-02-11T18:31:57.702Z,4.04
2023-02-11T18:34:25.758Z,4.17
2023-02-11T18:36:54.232Z,3.98
2023-02-11T18:39:24.472Z,4.01
2023-02-11T18:41:57.019Z,4.03
2023-02-11T18:44:26.568Z,3.94
2023-02-11T18:46:55.082Z,3.94
2023-02-11T18:49:23.701Z,3.72
2023-02-11T18:51:52.355Z,4.09
2023-02-11T18:54:21.517Z,3.62
2023-02-11T18:56:50.257Z,3.78
2023-02-11T18:59:18.119Z,3.65
2023-02-11T19:01:47.335Z,3.72
2023-02-11T19:04:20.534Z,3.54
2023-02-11T19:06:51.460Z,3.86
2023-02-11T19:09:24.840Z,3.72
2023-02-11T19:12:30.730Z,3.51
2023-02-11T19:15:10.203Z,3.90
2023-02-11T19:18:19.054Z,3.80
2023-02-11T19:20:50.183Z,4.01
2023-02-11T19:23:18.993Z,3.66
2023-02-11T19:25:48.398Z,3.71
2023-02-11T19:28:16.230Z,3.72
2023-02-11T19:30:44.253Z,3.81
2023-02-11T19:33:12.967Z,3.75
2023-02-11T19:35:40.997Z,3.79
2023-02-11T19:38:09.396Z,3.87
2023-02-11T19:40:37.339Z,3.47
2023-02-11T19:43:05.817Z,3.58
2023-02-11T19:45:38.336Z,3.92
2023-02-11T19:48:06.644Z,3.67
2023-02-11T19:50:34.037Z,3.86
2023-02-11T19:53:02.950Z,3.66
2023-02-11T19:55:31.077Z,3.49
2023-02-11T19:57:59.280Z,3.55
2023-02-11T20:00:26.782Z,3.70
2023-02-11T20:02:55.284Z,3.55
2023-02-11T20:05:22.895Z,3.49
2023-02-11T20:07:50.849Z,3.43
2023-02-11T20:10:18.550Z,3.17
2023-02-11T20:12:48.827Z,2.88
2023-02-11T20:15:17.430Z,3.13
2023-02-11T20:17:45.831Z,3.15
2023-02-11T20:20:14.121Z,3.06
2023-02-11T20:22:42.951Z,3.19
2023-02-11T20:25:14.467Z,3.12
2023-02-11T20:27:45.813Z,3.43
2023-02-11T20:30:15.573Z,3.38
2023-02-11T20:32:44.509Z,3.28
2023-02-11T20:35:12.380Z,3.27
2023-02-11T20:37:43.788Z,3.34
2023-02-11T20:40:12.630Z,3.56
2023-02-11T20:42:41.153Z,3.02
2023-02-11T20:45:09.708Z,3.02
2023-02-11T20:47:39.066Z,2.97
2023-02-11T20:50:07.948Z,2.72
2023-02-11T20:52:40.713Z,3.06
2023-02-11T20:55:08.729Z,2.87
2023-02-11T20:57:37.177Z,2.95
2023-02-11T21:00:06.421Z,3.15
2023-02-11T21:02:34.853Z,3.22
2023-02-11T21:05:02.989Z,2.92
2023-02-11T21:07:31.648Z,3.22
2023-02-11T21:09:59.644Z,3.11
2023-02-11T21:12:27.908Z,2.99
2023-02-11T21:14:57.290Z,3.15
2023-02-11T21:17:26.622Z,3.08
2023-02-11T21:19:54.342Z,3.29
2023-02-11T21:22:22.392Z,3.02
2023-02-11T21:24:50.677Z,3.02
2023-02-11T21:27:19.399Z,3.08
2023-02-11T21:29:54.165Z,3.13
2023-02-11T21:32:22.951Z,2.76
2023-02-11T21:34:51.115Z,2.66
2023-02-11T21:37:19.093Z,3.01
2023-02-11T21:39:46.568Z,3.23
2023-02-11T21:42:14.562Z,2.88
2023-02-11T21:44:42.232Z,3.01
2023-02-11T21:47:10.182Z,3.10
2023-02-11T21:49:38.156Z,2.89
2023-02-11T21:52:06.050Z,3.09
2023-02-11T21:54:33.876Z,3.08
2023-02-11T21:57:03.305Z,3.02
2023-02-11T21:59:32.023Z,3.05
2023-02-11T22:01:59.906Z,3.13
2023-02-11T22:04:27.496Z,3.53
2023-02-11T22:06:55.995Z,3.12
2023-02-11T22:09:23.827Z,2.98
2023-02-11T22:11:53.164Z,3.20
2023-02-11T22:14:20.529Z,3.30
2023-02-11T22:16:48.429Z,3.11
2023-02-11T22:19:15.795Z,3.11
2023-02-11T22:21:43.561Z,3.01
2023-02-11T22:24:11.129Z,3.11
2023-02-11T22:26:38.957Z,3.01
2023-02-11T22:29:06.268Z,3.12
2023-02-11T22:31:35.297Z,2.99
2023-02-11T22:34:04.774Z,3.03
2023-02-11T22:36:35.517Z,3.00
2023-02-11T22:39:13.877Z,2.95
2023-02-11T22:41:43.355Z,2.70
2023-02-11T22:44:11.776Z,3.19
2023-02-11T22:46:46.264Z,2.89
2023-02-11T22:49:15.829Z,2.96
2023-02-11T22:51:44.131Z,2.96
2023-02-11T22:54:18.936Z,2.71
2023-02-11T22:56:50.840Z,2.75
2023-02-11T22:59:19.002Z,2.79
2023-02-11T23:01:46.864Z,2.81
2023-02-11T23:04:16.180Z,2.81
2023-02-11T23:06:43.998Z,2.78
2023-02-11T23:09:14.754Z,2.82
2023-02-11T23:11:42.633Z,2.95
2023-02-11T23:14:12.668Z,2.95
2023-02-11T23:16:41.643Z,3.08
2023-02-11T23:19:10.376Z,3.00
2023-02-11T23:21:39.350Z,3.01
2023-02-11T23:24:15.924Z,3.37
2023-02-11T23:26:44.626Z,2.97
2023-02-11T23:29:12.378Z,3.13
2023-02-11T23:31:43.896Z,2.70
2023-02-11T23:34:12.266Z,2.87
2023-02-11T23:36:39.800Z,3.04
2023-02-11T23:39:07.077Z,2.72
2023-02-11T23:41:35.123Z,3.00
2023-02-11T23:44:02.407Z,2.67
2023-02-11T23:46:30.122Z,2.88
2023-02-11T23:48:57.518Z,2.97
2023-02-11T23:51:25.417Z,3.18
2023-02-11T23:53:54.869Z,2.65
2023-02-11T23:56:24.346Z,2.95
2023-02-11T23:58:54.429Z,2.78
